sensor_id;sensor_type;location;lat;lon;timestamp;pressure;altitude;pressure_sealevel;temperature;humidity
45991;BME280;31721;41.740;-88.000;2024-02-26T00:02:03;98124.94;;;13.82;29.03
45991;BME280;31721;41.740;-88.000;2024-02-26T00:04:31;98128.40;;;13.92;29.52
45991;BME280;31721;41.740;-88.000;2024-02-26T00:06:59;98137.78;;;13.95;29.36
45991;BME280;31721;41.740;-88.000;2024-02-26T00:09:27;98136.91;;;13.88;29.35
45991;BME280;31721;41.740;-88.000;2024-02-26T00:11:55;98131.75;;;13.84;29.66
45991;BME280;31721;41.740;-88.000;2024-02-26T00:14:23;98134.64;;;13.80;29.54
45991;BME280;31721;41.740;-88.000;2024-02-26T00:16:51;98140.98;;;13.63;29.68
45991;BME280;31721;41.740;-88.000;2024-02-26T00:19:19;98144.38;;;13.72;29.61
45991;BME280;31721;41.740;-88.000;2024-02-26T00:21:47;98140.66;;;13.59;29.86
45991;BME280;31721;41.740;-88.000;2024-02-26T00:24:15;98140.63;;;13.68;30.15
45991;BME280;31721;41.740;-88.000;2024-02-26T00:26:43;98145.95;;;13.48;30.17
45991;BME280;31721;41.740;-88.000;2024-02-26T00:29:10;98158.05;;;13.17;30.33
45991;BME280;31721;41.740;-88.000;2024-02-26T00:31:38;98164.00;;;13.03;30.46
45991;BME280;31721;41.740;-88.000;2024-02-26T00:34:06;98157.78;;;13.00;31.08
45991;BME280;31721;41.740;-88.000;2024-02-26T00:36:34;98159.42;;;13.00;31.45
45991;BME280;31721;41.740;-88.000;2024-02-26T00:39:02;98160.32;;;12.81;31.33
45991;BME280;31721;41.740;-88.000;2024-02-26T00:41:30;98155.06;;;12.81;31.39
45991;BME280;31721;41.740;-88.000;2024-02-26T00:43:57;98167.33;;;12.88;31.67
45991;BME280;31721;41.740;-88.000;2024-02-26T00:46:26;98174.66;;;12.70;31.63
45991;BME280;31721;41.740;-88.000;2024-02-26T00:48:54;98173.95;;;12.62;31.87
45991;BME280;31721;41.740;-88.000;2024-02-26T00:51:22;98171.56;;;12.58;32.03
45991;BME280;31721;41.740;-88.000;2024-02-26T00:53:50;98165.06;;;12.49;32.22
45991;BME280;31721;41.740;-88.000;2024-02-26T00:56:18;98161.97;;;12.42;32.13
45991;BME280;31721;41.740;-88.000;2024-02-26T00:58:47;98164.74;;;12.33;32.38
45991;BME280;31721;41.740;-88.000;2024-02-26T01:01:15;98163.71;;;12.22;32.49
45991;BME280;31721;41.740;-88.000;2024-02-26T01:03:42;98176.83;;;11.82;33.19
45991;BME280;31721;41.740;-88.000;2024-02-26T01:06:11;98182.94;;;11.22;33.39
45991;BME280;31721;41.740;-88.000;2024-02-26T01:08:38;98175.54;;;11.38;33.34
45991;BME280;31721;41.740;-88.000;2024-02-26T01:11:06;98193.74;;;11.33;32.92
45991;BME280;31721;41.740;-88.000;2024-02-26T01:13:34;98201.19;;;11.14;33.02
45991;BME280;31721;41.740;-88.000;2024-02-26T01:16:02;98198.88;;;11.19;33.56
45991;BME280;31721;41.740;-88.000;2024-02-26T01:18:29;98197.44;;;11.35;33.98
45991;BME280;31721;41.740;-88.000;2024-02-26T01:20:57;98203.40;;;11.25;33.87
45991;BME280;31721;41.740;-88.000;2024-02-26T01:23:25;98200.91;;;11.00;33.64
45991;BME280;31721;41.740;-88.000;2024-02-26T01:25:53;98205.36;;;11.07;33.83
45991;BME280;31721;41.740;-88.000;2024-02-26T01:28:21;98209.10;;;11.04;33.85
45991;BME280;31721;41.740;-88.000;2024-02-26T01:30:49;98211.42;;;11.14;34.47
45991;BME280;31721;41.740;-88.000;2024-02-26T01:33:17;98214.29;;;11.08;34.36
45991;BME280;31721;41.740;-88.000;2024-02-26T01:35:44;98223.38;;;11.16;34.55
45991;BME280;31721;41.740;-88.000;2024-02-26T01:38:12;98224.46;;;11.18;34.63
45991;BME280;31721;41.740;-88.000;2024-02-26T01:40:41;98223.77;;;10.87;33.87
45991;BME280;31721;41.740;-88.000;2024-02-26T01:43:09;98227.60;;;11.00;34.89
45991;BME280;31721;41.740;-88.000;2024-02-26T01:45:37;98227.51;;;10.96;34.76
45991;BME280;31721;41.740;-88.000;2024-02-26T01:48:05;98227.75;;;10.94;34.98
45991;BME280;31721;41.740;-88.000;2024-02-26T01:50:34;98234.79;;;10.87;34.91
45991;BME280;31721;41.740;-88.000;2024-02-26T01:53:02;98238.54;;;10.84;34.79
45991;BME280;31721;41.740;-88.000;2024-02-26T01:55:30;98240.59;;;10.64;34.84
45991;BME280;31721;41.740;-88.000;2024-02-26T01:57:59;98246.88;;;10.58;35.18
45991;BME280;31721;41.740;-88.000;2024-02-26T02:00:27;98247.05;;;10.57;35.43
45991;BME280;31721;41.740;-88.000;2024-02-26T02:02:55;98245.44;;;10.73;36.27
45991;BME280;31721;41.740;-88.000;2024-02-26T02:05:23;98240.99;;;10.58;35.91
45991;BME280;31721;41.740;-88.000;2024-02-26T02:07:52;98244.16;;;10.53;36.04
45991;BME280;31721;41.740;-88.000;2024-02-26T02:10:20;98244.67;;;10.43;35.62
45991;BME280;31721;41.740;-88.000;2024-02-26T02:12:47;98254.36;;;10.43;35.90
45991;BME280;31721;41.740;-88.000;2024-02-26T02:15:16;98258.12;;;10.35;36.21
45991;BME280;31721;41.740;-88.000;2024-02-26T02:17:44;98263.94;;;10.30;36.43
45991;BME280;31721;41.740;-88.000;2024-02-26T02:20:16;98269.29;;;10.37;36.90
45991;BME280;31721;41.740;-88.000;2024-02-26T02:22:45;98270.32;;;10.33;36.61
45991;BME280;31721;41.740;-88.000;2024-02-26T02:25:13;98267.13;;;10.23;36.89
45991;BME280;31721;41.740;-88.000;2024-02-26T02:27:43;98268.14;;;10.21;37.14
45991;BME280;31721;41.740;-88.000;2024-02-26T02:30:11;98271.03;;;10.19;37.20
45991;BME280;31721;41.740;-88.000;2024-02-26T02:32:40;98271.40;;;10.07;37.14
45991;BME280;31721;41.740;-88.000;2024-02-26T02:35:08;98272.17;;;10.14;37.30
45991;BME280;31721;41.740;-88.000;2024-02-26T02:37:36;98273.00;;;10.14;37.29
45991;BME280;31721;41.740;-88.000;2024-02-26T02:40:04;98275.16;;;10.10;37.46
45991;BME280;31721;41.740;-88.000;2024-02-26T02:42:32;98277.26;;;10.08;37.83
45991;BME280;31721;41.740;-88.000;2024-02-26T02:45:00;98276.98;;;10.04;37.88
45991;BME280;31721;41.740;-88.000;2024-02-26T02:47:28;98278.17;;;9.98;37.68
45991;BME280;31721;41.740;-88.000;2024-02-26T02:49:56;98284.44;;;9.81;37.75
45991;BME280;31721;41.740;-88.000;2024-02-26T02:52:24;98284.58;;;9.80;37.84
45991;BME280;31721;41.740;-88.000;2024-02-26T02:54:52;98292.55;;;9.74;38.13
45991;BME280;31721;41.740;-88.000;2024-02-26T02:57:19;98293.44;;;9.67;37.98
45991;BME280;31721;41.740;-88.000;2024-02-26T02:59:47;98296.62;;;9.60;38.18
45991;BME280;31721;41.740;-88.000;2024-02-26T03:02:16;98298.54;;;9.57;38.27
45991;BME280;31721;41.740;-88.000;2024-02-26T03:04:44;98301.05;;;9.55;38.42
45991;BME280;31721;41.740;-88.000;2024-02-26T03:07:12;98303.91;;;9.54;38.33
45991;BME280;31721;41.740;-88.000;2024-02-26T03:09:40;98307.75;;;9.57;38.42
45991;BME280;31721;41.740;-88.000;2024-02-26T03:12:08;98309.62;;;9.49;38.48
45991;BME280;31721;41.740;-88.000;2024-02-26T03:14:36;98310.81;;;9.47;38.38
45991;BME280;31721;41.740;-88.000;2024-02-26T03:17:04;98313.79;;;9.58;38.69
45991;BME280;31721;41.740;-88.000;2024-02-26T03:19:31;98312.79;;;9.43;38.95
45991;BME280;31721;41.740;-88.000;2024-02-26T03:21:59;98315.86;;;9.45;39.52
45991;BME280;31721;41.740;-88.000;2024-02-26T03:24:27;98316.19;;;9.34;40.10
45991;BME280;31721;41.740;-88.000;2024-02-26T03:26:55;98311.64;;;9.38;40.32
45991;BME280;31721;41.740;-88.000;2024-02-26T03:29:24;98312.06;;;9.42;40.32
45991;BME280;31721;41.740;-88.000;2024-02-26T03:31:51;98315.15;;;9.23;40.45
45991;BME280;31721;41.740;-88.000;2024-02-26T03:34:19;98317.20;;;9.32;40.36
45991;BME280;31721;41.740;-88.000;2024-02-26T03:36:47;98320.56;;;9.27;40.61
45991;BME280;31721;41.740;-88.000;2024-02-26T03:39:15;98324.71;;;9.25;40.76
45991;BME280;31721;41.740;-88.000;2024-02-26T03:41:43;98322.26;;;9.21;40.69
45991;BME280;31721;41.740;-88.000;2024-02-26T03:44:10;98322.59;;;9.18;40.84
45991;BME280;31721;41.740;-88.000;2024-02-26T03:46:38;98323.40;;;9.17;41.00
45991;BME280;31721;41.740;-88.000;2024-02-26T03:49:06;98324.75;;;9.13;40.86
45991;BME280;31721;41.740;-88.000;2024-02-26T03:51:34;98326.07;;;9.13;40.95
45991;BME280;31721;41.740;-88.000;2024-02-26T03:54:01;98324.27;;;9.02;41.04
45991;BME280;31721;41.740;-88.000;2024-02-26T03:56:29;98326.03;;;9.10;41.31
45991;BME280;31721;41.740;-88.000;2024-02-26T03:58:57;98325.23;;;9.10;41.30
45991;BME280;31721;41.740;-88.000;2024-02-26T04:01:25;98325.43;;;9.10;41.17
45991;BME280;31721;41.740;-88.000;2024-02-26T04:03:54;98330.75;;;9.06;41.18
45991;BME280;31721;41.740;-88.000;2024-02-26T04:06:22;98332.79;;;9.04;40.96
45991;BME280;31721;41.740;-88.000;2024-02-26T04:08:50;98333.68;;;9.02;41.19
45991;BME280;31721;41.740;-88.000;2024-02-26T04:11:18;98333.75;;;9.05;41.33
45991;BME280;31721;41.740;-88.000;2024-02-26T04:13:46;98333.01;;;8.95;41.52
45991;BME280;31721;41.740;-88.000;2024-02-26T04:16:14;98330.37;;;8.93;41.85
45991;BME280;31721;41.740;-88.000;2024-02-26T04:18:42;98330.93;;;8.89;41.80
45991;BME280;31721;41.740;-88.000;2024-02-26T04:21:10;98331.31;;;8.86;42.02
45991;BME280;31721;41.740;-88.000;2024-02-26T04:23:38;98332.69;;;8.92;42.09
45991;BME280;31721;41.740;-88.000;2024-02-26T04:26:05;98334.11;;;8.82;42.01
45991;BME280;31721;41.740;-88.000;2024-02-26T04:28:33;98336.20;;;8.88;41.97
45991;BME280;31721;41.740;-88.000;2024-02-26T04:31:01;98339.25;;;8.78;41.83
45991;BME280;31721;41.740;-88.000;2024-02-26T04:33:29;98334.90;;;8.78;41.97
45991;BME280;31721;41.740;-88.000;2024-02-26T04:35:57;98337.04;;;8.85;41.80
45991;BME280;31721;41.740;-88.000;2024-02-26T04:38:25;98336.99;;;8.74;41.72
45991;BME280;31721;41.740;-88.000;2024-02-26T04:40:53;98339.33;;;8.72;41.65
45991;BME280;31721;41.740;-88.000;2024-02-26T04:43:21;98342.43;;;8.70;41.74
45991;BME280;31721;41.740;-88.000;2024-02-26T04:45:49;98343.05;;;8.70;41.81
45991;BME280;31721;41.740;-88.000;2024-02-26T04:48:17;98343.47;;;8.69;41.85
45991;BME280;31721;41.740;-88.000;2024-02-26T04:50:44;98338.88;;;8.66;41.90
45991;BME280;31721;41.740;-88.000;2024-02-26T04:53:12;98336.35;;;8.67;41.85
45991;BME280;31721;41.740;-88.000;2024-02-26T04:55:39;98338.95;;;8.67;41.93
45991;BME280;31721;41.740;-88.000;2024-02-26T04:58:07;98338.39;;;8.67;41.82
45991;BME280;31721;41.740;-88.000;2024-02-26T05:00:35;98338.71;;;8.69;41.88
45991;BME280;31721;41.740;-88.000;2024-02-26T05:03:03;98337.46;;;8.68;42.07
45991;BME280;31721;41.740;-88.000;2024-02-26T05:05:30;98338.67;;;8.68;42.13
45991;BME280;31721;41.740;-88.000;2024-02-26T05:07:58;98341.83;;;8.69;42.03
45991;BME280;31721;41.740;-88.000;2024-02-26T05:10:26;98343.58;;;8.61;42.26
45991;BME280;31721;41.740;-88.000;2024-02-26T05:12:54;98342.45;;;8.66;42.19
45991;BME280;31721;41.740;-88.000;2024-02-26T05:15:22;98344.50;;;8.63;42.18
45991;BME280;31721;41.740;-88.000;2024-02-26T05:17:49;98343.33;;;8.62;42.30
45991;BME280;31721;41.740;-88.000;2024-02-26T05:20:16;98347.35;;;8.55;42.22
45991;BME280;31721;41.740;-88.000;2024-02-26T05:22:44;98350.73;;;8.52;42.38
45991;BME280;31721;41.740;-88.000;2024-02-26T05:25:11;98351.39;;;8.55;42.33
45991;BME280;31721;41.740;-88.000;2024-02-26T05:27:43;98352.29;;;8.41;42.35
45991;BME280;31721;41.740;-88.000;2024-02-26T05:30:11;98352.81;;;8.35;42.51
45991;BME280;31721;41.740;-88.000;2024-02-26T05:32:39;98354.81;;;8.30;42.70
45991;BME280;31721;41.740;-88.000;2024-02-26T05:35:07;98356.32;;;8.32;42.90
45991;BME280;31721;41.740;-88.000;2024-02-26T05:37:35;98362.39;;;8.31;42.83
45991;BME280;31721;41.740;-88.000;2024-02-26T05:40:03;98362.33;;;8.04;42.92
45991;BME280;31721;41.740;-88.000;2024-02-26T05:42:31;98359.92;;;8.07;43.10
45991;BME280;31721;41.740;-88.000;2024-02-26T05:44:59;98359.76;;;8.15;43.27
45991;BME280;31721;41.740;-88.000;2024-02-26T05:47:27;98358.24;;;8.12;43.43
45991;BME280;31721;41.740;-88.000;2024-02-26T05:49:54;98355.78;;;8.06;43.64
45991;BME280;31721;41.740;-88.000;2024-02-26T05:52:22;98356.76;;;8.26;43.67
45991;BME280;31721;41.740;-88.000;2024-02-26T05:54:50;98362.08;;;8.10;43.66
45991;BME280;31721;41.740;-88.000;2024-02-26T05:57:18;98363.81;;;8.30;43.51
45991;BME280;31721;41.740;-88.000;2024-02-26T05:59:46;98366.99;;;8.23;43.72
45991;BME280;31721;41.740;-88.000;2024-02-26T06:02:13;98371.63;;;8.22;43.75
45991;BME280;31721;41.740;-88.000;2024-02-26T06:04:41;98376.04;;;7.89;43.28
45991;BME280;31721;41.740;-88.000;2024-02-26T06:07:09;98375.50;;;8.00;43.78
45991;BME280;31721;41.740;-88.000;2024-02-26T06:09:37;98373.22;;;7.98;43.90
45991;BME280;31721;41.740;-88.000;2024-02-26T06:12:05;98373.25;;;7.73;44.21
45991;BME280;31721;41.740;-88.000;2024-02-26T06:14:33;98372.23;;;7.87;44.31
45991;BME280;31721;41.740;-88.000;2024-02-26T06:17:01;98369.49;;;7.78;44.38
45991;BME280;31721;41.740;-88.000;2024-02-26T06:19:29;98371.57;;;7.67;44.48
45991;BME280;31721;41.740;-88.000;2024-02-26T06:21:57;98373.28;;;7.55;44.35
45991;BME280;31721;41.740;-88.000;2024-02-26T06:24:25;98374.32;;;7.56;44.06
45991;BME280;31721;41.740;-88.000;2024-02-26T06:26:53;98378.56;;;7.38;44.20
45991;BME280;31721;41.740;-88.000;2024-02-26T06:29:21;98381.91;;;7.47;45.07
45991;BME280;31721;41.740;-88.000;2024-02-26T06:31:48;98388.81;;;7.47;45.24
45991;BME280;31721;41.740;-88.000;2024-02-26T06:34:16;98393.39;;;7.47;45.29
45991;BME280;31721;41.740;-88.000;2024-02-26T06:36:43;98396.84;;;7.43;45.25
45991;BME280;31721;41.740;-88.000;2024-02-26T06:39:11;98398.13;;;7.43;45.24
45991;BME280;31721;41.740;-88.000;2024-02-26T06:41:38;98401.67;;;7.43;45.26
45991;BME280;31721;41.740;-88.000;2024-02-26T06:44:06;98401.87;;;7.46;45.21
45991;BME280;31721;41.740;-88.000;2024-02-26T06:46:34;98401.68;;;7.51;45.28
45991;BME280;31721;41.740;-88.000;2024-02-26T06:49:02;98399.52;;;7.54;45.26
45991;BME280;31721;41.740;-88.000;2024-02-26T06:51:29;98403.80;;;7.56;45.19
45991;BME280;31721;41.740;-88.000;2024-02-26T06:53:57;98403.81;;;7.62;45.26
45991;BME280;31721;41.740;-88.000;2024-02-26T06:56:25;98405.83;;;7.65;45.23
45991;BME280;31721;41.740;-88.000;2024-02-26T06:58:53;98397.80;;;7.59;45.06
45991;BME280;31721;41.740;-88.000;2024-02-26T07:01:20;98398.62;;;7.72;45.33
45991;BME280;31721;41.740;-88.000;2024-02-26T07:03:48;98396.09;;;7.72;45.11
45991;BME280;31721;41.740;-88.000;2024-02-26T07:06:15;98396.69;;;7.69;44.97
45991;BME280;31721;41.740;-88.000;2024-02-26T07:08:43;98399.51;;;7.65;44.97
45991;BME280;31721;41.740;-88.000;2024-02-26T07:11:10;98403.67;;;7.57;44.70
45991;BME280;31721;41.740;-88.000;2024-02-26T07:13:38;98402.34;;;7.55;45.05
45991;BME280;31721;41.740;-88.000;2024-02-26T07:16:09;98402.42;;;7.38;45.16
45991;BME280;31721;41.740;-88.000;2024-02-26T07:18:37;98400.83;;;7.35;45.23
45991;BME280;31721;41.740;-88.000;2024-02-26T07:21:04;98401.27;;;7.37;45.27
45991;BME280;31721;41.740;-88.000;2024-02-26T07:23:32;98399.40;;;7.24;45.18
45991;BME280;31721;41.740;-88.000;2024-02-26T07:26:00;98393.85;;;7.13;45.20
45991;BME280;31721;41.740;-88.000;2024-02-26T07:28:28;98389.28;;;7.09;45.33
45991;BME280;31721;41.740;-88.000;2024-02-26T07:30:56;98389.42;;;7.04;45.49
45991;BME280;31721;41.740;-88.000;2024-02-26T07:33:23;98386.47;;;7.09;45.37
45991;BME280;31721;41.740;-88.000;2024-02-26T07:35:51;98384.08;;;6.96;45.26
45991;BME280;31721;41.740;-88.000;2024-02-26T07:38:19;98382.69;;;6.91;45.30
45991;BME280;31721;41.740;-88.000;2024-02-26T07:40:51;98377.83;;;6.94;45.40
45991;BME280;31721;41.740;-88.000;2024-02-26T07:43:19;98374.03;;;6.85;45.53
45991;BME280;31721;41.740;-88.000;2024-02-26T07:45:47;98372.91;;;6.81;45.32
45991;BME280;31721;41.740;-88.000;2024-02-26T07:48:15;98372.67;;;6.87;45.42
45991;BME280;31721;41.740;-88.000;2024-02-26T07:50:43;98374.56;;;6.92;45.32
45991;BME280;31721;41.740;-88.000;2024-02-26T07:53:11;98373.71;;;6.90;45.28
45991;BME280;31721;41.740;-88.000;2024-02-26T07:55:39;98374.35;;;6.89;45.42
45991;BME280;31721;41.740;-88.000;2024-02-26T07:58:06;98374.08;;;6.85;45.32
45991;BME280;31721;41.740;-88.000;2024-02-26T08:00:33;98377.61;;;6.72;45.32
45991;BME280;31721;41.740;-88.000;2024-02-26T08:03:01;98377.72;;;6.65;45.28
45991;BME280;31721;41.740;-88.000;2024-02-26T08:05:30;98376.73;;;6.65;45.44
45991;BME280;31721;41.740;-88.000;2024-02-26T08:07:58;98374.37;;;6.50;45.40
45991;BME280;31721;41.740;-88.000;2024-02-26T08:10:26;98371.87;;;6.42;45.46
45991;BME280;31721;41.740;-88.000;2024-02-26T08:12:54;98373.38;;;6.34;45.47
45991;BME280;31721;41.740;-88.000;2024-02-26T08:15:22;98373.79;;;6.33;45.34
45991;BME280;31721;41.740;-88.000;2024-02-26T08:17:49;98372.18;;;6.25;45.58
45991;BME280;31721;41.740;-88.000;2024-02-26T08:20:17;98375.38;;;6.28;45.74
45991;BME280;31721;41.740;-88.000;2024-02-26T08:22:45;98374.56;;;6.11;45.80
45991;BME280;31721;41.740;-88.000;2024-02-26T08:25:13;98378.20;;;6.08;45.90
45991;BME280;31721;41.740;-88.000;2024-02-26T08:27:41;98374.64;;;6.03;45.93
45991;BME280;31721;41.740;-88.000;2024-02-26T08:30:09;98372.41;;;5.97;45.84
45991;BME280;31721;41.740;-88.000;2024-02-26T08:32:37;98373.38;;;5.93;45.94
45991;BME280;31721;41.740;-88.000;2024-02-26T08:35:05;98372.38;;;5.91;46.03
45991;BME280;31721;41.740;-88.000;2024-02-26T08:37:33;98370.19;;;5.84;46.00
45991;BME280;31721;41.740;-88.000;2024-02-26T08:40:01;98367.68;;;5.85;46.20
45991;BME280;31721;41.740;-88.000;2024-02-26T08:42:29;98364.06;;;5.64;46.12
45991;BME280;31721;41.740;-88.000;2024-02-26T08:44:56;98366.32;;;5.76;46.27
45991;BME280;31721;41.740;-88.000;2024-02-26T08:47:24;98366.09;;;5.72;46.22
45991;BME280;31721;41.740;-88.000;2024-02-26T08:49:51;98366.19;;;5.70;46.16
45991;BME280;31721;41.740;-88.000;2024-02-26T08:52:19;98363.16;;;5.68;46.16
45991;BME280;31721;41.740;-88.000;2024-02-26T08:54:47;98362.88;;;5.58;46.08
45991;BME280;31721;41.740;-88.000;2024-02-26T08:57:14;98359.22;;;5.63;46.09
45991;BME280;31721;41.740;-88.000;2024-02-26T08:59:42;98359.14;;;5.61;46.06
45991;BME280;31721;41.740;-88.000;2024-02-26T09:02:10;98358.31;;;5.60;46.19
45991;BME280;31721;41.740;-88.000;2024-02-26T09:04:38;98358.73;;;5.56;46.03
45991;BME280;31721;41.740;-88.000;2024-02-26T09:07:05;98357.22;;;5.51;45.99
45991;BME280;31721;41.740;-88.000;2024-02-26T09:09:33;98356.88;;;5.33;46.12
45991;BME280;31721;41.740;-88.000;2024-02-26T09:12:01;98358.01;;;5.33;46.01
45991;BME280;31721;41.740;-88.000;2024-02-26T09:14:29;98354.56;;;5.33;46.06
45991;BME280;31721;41.740;-88.000;2024-02-26T09:16:57;98352.95;;;5.32;46.01
45991;BME280;31721;41.740;-88.000;2024-02-26T09:19:26;98349.11;;;5.30;45.74
45991;BME280;31721;41.740;-88.000;2024-02-26T09:21:53;98345.65;;;5.23;45.65
45991;BME280;31721;41.740;-88.000;2024-02-26T09:24:20;98345.95;;;5.31;45.53
45991;BME280;31721;41.740;-88.000;2024-02-26T09:26:48;98341.15;;;5.28;45.35
45991;BME280;31721;41.740;-88.000;2024-02-26T09:29:16;98339.46;;;5.31;45.25
45991;BME280;31721;41.740;-88.000;2024-02-26T09:31:44;98337.44;;;5.22;45.13
45991;BME280;31721;41.740;-88.000;2024-02-26T09:34:12;98339.13;;;5.35;45.03
45991;BME280;31721;41.740;-88.000;2024-02-26T09:36:39;98342.83;;;5.37;44.88
45991;BME280;31721;41.740;-88.000;2024-02-26T09:39:06;98342.87;;;5.39;44.76
45991;BME280;31721;41.740;-88.000;2024-02-26T09:41:34;98342.11;;;5.23;44.56
45991;BME280;31721;41.740;-88.000;2024-02-26T09:44:03;98343.47;;;5.45;44.56
45991;BME280;31721;41.740;-88.000;2024-02-26T09:46:31;98340.31;;;5.47;44.57
45991;BME280;31721;41.740;-88.000;2024-02-26T09:49:00;98336.94;;;5.52;44.58
45991;BME280;31721;41.740;-88.000;2024-02-26T09:51:28;98334.60;;;5.55;44.45
45991;BME280;31721;41.740;-88.000;2024-02-26T09:53:56;98332.51;;;5.46;44.31
45991;BME280;31721;41.740;-88.000;2024-02-26T09:56:27;98330.67;;;5.49;44.18
45991;BME280;31721;41.740;-88.000;2024-02-26T09:58:56;98330.79;;;5.56;44.05
45991;BME280;31721;41.740;-88.000;2024-02-26T10:01:25;98329.93;;;5.59;43.88
45991;BME280;31721;41.740;-88.000;2024-02-26T10:03:55;98331.12;;;5.60;43.79
45991;BME280;31721;41.740;-88.000;2024-02-26T10:06:25;98328.42;;;5.64;43.96
45991;BME280;31721;41.740;-88.000;2024-02-26T10:08:55;98331.78;;;5.75;43.75
45991;BME280;31721;41.740;-88.000;2024-02-26T10:11:22;98331.41;;;5.71;43.87
45991;BME280;31721;41.740;-88.000;2024-02-26T10:13:51;98330.55;;;5.73;43.46
45991;BME280;31721;41.740;-88.000;2024-02-26T10:16:18;98332.11;;;5.84;43.52
45991;BME280;31721;41.740;-88.000;2024-02-26T10:18:47;98331.81;;;5.79;43.50
45991;BME280;31721;41.740;-88.000;2024-02-26T10:21:16;98334.79;;;5.71;43.25
45991;BME280;31721;41.740;-88.000;2024-02-26T10:23:44;98336.29;;;5.84;43.20
45991;BME280;31721;41.740;-88.000;2024-02-26T10:26:12;98332.14;;;5.78;43.18
45991;BME280;31721;41.740;-88.000;2024-02-26T10:28:43;98334.64;;;5.84;43.15
45991;BME280;31721;41.740;-88.000;2024-02-26T10:31:11;98334.52;;;5.87;43.00
45991;BME280;31721;41.740;-88.000;2024-02-26T10:33:46;98332.23;;;5.95;43.06
45991;BME280;31721;41.740;-88.000;2024-02-26T10:36:13;98331.91;;;5.76;42.92
45991;BME280;31721;41.740;-88.000;2024-02-26T10:38:42;98336.79;;;5.88;42.84
45991;BME280;31721;41.740;-88.000;2024-02-26T10:41:13;98336.94;;;5.96;42.77
45991;BME280;31721;41.740;-88.000;2024-02-26T10:43:42;98338.63;;;6.00;42.85
45991;BME280;31721;41.740;-88.000;2024-02-26T10:46:10;98337.59;;;5.94;42.84
45991;BME280;31721;41.740;-88.000;2024-02-26T10:48:38;98338.59;;;5.87;42.76
45991;BME280;31721;41.740;-88.000;2024-02-26T10:51:07;98343.26;;;5.97;42.68
45991;BME280;31721;41.740;-88.000;2024-02-26T10:53:37;98344.15;;;5.95;42.77
45991;BME280;31721;41.740;-88.000;2024-02-26T10:56:06;98346.56;;;6.05;42.75
45991;BME280;31721;41.740;-88.000;2024-02-26T10:58:35;98346.21;;;5.99;42.76
45991;BME280;31721;41.740;-88.000;2024-02-26T11:01:04;98344.60;;;6.01;42.78
45991;BME280;31721;41.740;-88.000;2024-02-26T11:03:32;98345.23;;;6.10;42.80
45991;BME280;31721;41.740;-88.000;2024-02-26T11:06:01;98346.99;;;5.98;42.82
45991;BME280;31721;41.740;-88.000;2024-02-26T11:08:31;98351.60;;;5.92;42.79
45991;BME280;31721;41.740;-88.000;2024-02-26T11:10:59;98351.21;;;5.95;42.60
45991;BME280;31721;41.740;-88.000;2024-02-26T11:13:28;98352.88;;;6.07;42.53
45991;BME280;31721;41.740;-88.000;2024-02-26T11:15:59;98355.39;;;5.96;42.43
45991;BME280;31721;41.740;-88.000;2024-02-26T11:18:27;98352.24;;;5.96;42.51
45991;BME280;31721;41.740;-88.000;2024-02-26T11:20:56;98352.10;;;5.96;42.59
45991;BME280;31721;41.740;-88.000;2024-02-26T11:23:26;98354.90;;;5.95;42.72
45991;BME280;31721;41.740;-88.000;2024-02-26T11:25:56;98356.35;;;5.94;42.65
45991;BME280;31721;41.740;-88.000;2024-02-26T11:28:26;98356.87;;;5.95;42.50
45991;BME280;31721;41.740;-88.000;2024-02-26T11:30:55;98359.61;;;5.91;42.56
45991;BME280;31721;41.740;-88.000;2024-02-26T11:33:24;98363.44;;;5.90;42.48
45991;BME280;31721;41.740;-88.000;2024-02-26T11:35:53;98369.80;;;5.92;42.46
45991;BME280;31721;41.740;-88.000;2024-02-26T11:38:23;98375.57;;;5.80;42.52
45991;BME280;31721;41.740;-88.000;2024-02-26T11:40:53;98380.19;;;5.76;42.46
45991;BME280;31721;41.740;-88.000;2024-02-26T11:43:24;98377.72;;;5.81;42.71
45991;BME280;31721;41.740;-88.000;2024-02-26T11:46:26;98376.35;;;5.73;42.70
45991;BME280;31721;41.740;-88.000;2024-02-26T11:48:56;98376.26;;;5.72;42.95
45991;BME280;31721;41.740;-88.000;2024-02-26T11:51:26;98377.63;;;5.69;42.97
45991;BME280;31721;41.740;-88.000;2024-02-26T11:53:54;98383.50;;;5.70;42.91
45991;BME280;31721;41.740;-88.000;2024-02-26T11:56:24;98385.65;;;5.67;42.80
45991;BME280;31721;41.740;-88.000;2024-02-26T11:58:59;98386.00;;;5.68;42.86
45991;BME280;31721;41.740;-88.000;2024-02-26T12:01:44;98384.52;;;5.58;42.86
45991;BME280;31721;41.740;-88.000;2024-02-26T12:04:15;98383.47;;;5.64;43.00
45991;BME280;31721;41.740;-88.000;2024-02-26T12:06:46;98380.75;;;5.46;43.13
45991;BME280;31721;41.740;-88.000;2024-02-26T12:09:30;98376.70;;;5.42;43.20
45991;BME280;31721;41.740;-88.000;2024-02-26T12:11:59;98378.83;;;5.53;43.09
45991;BME280;31721;41.740;-88.000;2024-02-26T12:14:27;98380.29;;;5.51;43.20
45991;BME280;31721;41.740;-88.000;2024-02-26T12:16:56;98380.75;;;5.47;43.23
45991;BME280;31721;41.740;-88.000;2024-02-26T12:19:24;98380.61;;;5.35;43.25
45991;BME280;31721;41.740;-88.000;2024-02-26T12:21:53;98384.00;;;5.39;43.32
45991;BME280;31721;41.740;-88.000;2024-02-26T12:24:21;98384.63;;;5.37;43.38
45991;BME280;31721;41.740;-88.000;2024-02-26T12:26:49;98385.52;;;5.36;43.45
45991;BME280;31721;41.740;-88.000;2024-02-26T12:29:16;98387.04;;;5.16;43.51
45991;BME280;31721;41.740;-88.000;2024-02-26T12:31:44;98387.49;;;5.25;43.58
45991;BME280;31721;41.740;-88.000;2024-02-26T12:34:12;98387.83;;;5.16;43.65
45991;BME280;31721;41.740;-88.000;2024-02-26T12:36:40;98388.10;;;5.23;43.82
45991;BME280;31721;41.740;-88.000;2024-02-26T12:39:08;98388.11;;;5.24;43.84
45991;BME280;31721;41.740;-88.000;2024-02-26T12:41:38;98393.24;;;5.25;43.76
45991;BME280;31721;41.740;-88.000;2024-02-26T12:44:06;98392.82;;;5.22;43.75
45991;BME280;31721;41.740;-88.000;2024-02-26T12:46:35;98395.09;;;5.20;43.74
45991;BME280;31721;41.740;-88.000;2024-02-26T12:49:02;98394.00;;;5.22;43.84
45991;BME280;31721;41.740;-88.000;2024-02-26T12:51:30;98390.83;;;5.22;43.77
45991;BME280;31721;41.740;-88.000;2024-02-26T12:53:57;98387.95;;;5.28;43.90